sensor_id;sensor_type;location;lat;lon;timestamp;P1;durP1;ratioP1;P2;durP2;ratioP2
68655;SDS011;55638;51.122;13.606;2023-03-23T00:00:35;1.67;;;0.70;;
68655;SDS011;55638;51.122;13.606;2023-03-23T00:02:07;0.95;;;0.80;;
68655;SDS011;55638;51.122;13.606;2023-03-23T00:03:39;2.13;;;0.93;;
68655;SDS011;55638;51.122;13.606;2023-03-23T00:05:12;1.50;;;0.60;;
68655;SDS011;55638;51.122;13.606;2023-03-23T00:06:44;0.90;;;0.70;;
68655;SDS011;55638;51.122;13.606;2023-03-23T00:08:17;0.75;;;0.60;;
68655;SDS011;55638;51.122;13.606;2023-03-23T00:09:52;0.90;;;0.73;;
68655;SDS011;55638;51.122;13.606;2023-03-23T00:11:26;2.78;;;0.90;;
68655;SDS011;55638;51.122;13.606;2023-03-23T00:13:00;1.42;;;0.50;;
68655;SDS011;55638;51.122;13.606;2023-03-23T00:14:36;0.85;;;0.70;;
68655;SDS011;55638;51.122;13.606;2023-03-23T00:16:13;1.25;;;0.77;;
68655;SDS011;55638;51.122;13.606;2023-03-23T00:17:51;1.20;;;0.70;;
68655;SDS011;55638;51.122;13.606;2023-03-23T00:19:23;1.20;;;0.63;;
68655;SDS011;55638;51.122;13.606;2023-03-23T00:20:58;0.90;;;0.70;;
68655;SDS011;55638;51.122;13.606;2023-03-23T00:22:29;0.60;;;0.50;;
68655;SDS011;55638;51.122;13.606;2023-03-23T00:24:06;0.65;;;0.50;;
68655;SDS011;55638;51.122;13.606;2023-03-23T00:25:40;0.90;;;0.55;;
68655;SDS011;55638;51.122;13.606;2023-03-23T00:27:13;2.55;;;0.52;;
68655;SDS011;55638;51.122;13.606;2023-03-23T00:28:46;0.43;;;0.43;;
68655;SDS011;55638;51.122;13.606;2023-03-23T00:30:18;0.80;;;0.40;;
68655;SDS011;55638;51.122;13.606;2023-03-23T00:31:51;0.80;;;0.50;;
68655;SDS011;55638;51.122;13.606;2023-03-23T00:33:24;0.73;;;0.50;;
68655;SDS011;55638;51.122;13.606;2023-03-23T00:34:58;0.57;;;0.38;;
68655;SDS011;55638;51.122;13.606;2023-03-23T00:36:31;0.30;;;0.28;;
68655;SDS011;55638;51.122;13.606;2023-03-23T00:38:07;0.73;;;0.50;;
68655;SDS011;55638;51.122;13.606;2023-03-23T00:39:39;0.73;;;0.32;;
68655;SDS011;55638;51.122;13.606;2023-03-23T00:41:17;0.73;;;0.30;;
68655;SDS011;55638;51.122;13.606;2023-03-23T00:42:49;0.57;;;0.40;;
68655;SDS011;55638;51.122;13.606;2023-03-23T00:44:21;0.70;;;0.40;;
68655;SDS011;55638;51.122;13.606;2023-03-23T00:45:55;0.75;;;0.40;;
68655;SDS011;55638;51.122;13.606;2023-03-23T00:47:28;0.38;;;0.38;;
68655;SDS011;55638;51.122;13.606;2023-03-23T00:49:01;0.60;;;0.40;;
68655;SDS011;55638;51.122;13.606;2023-03-23T00:50:34;0.40;;;0.30;;
68655;SDS011;55638;51.122;13.606;2023-03-23T00:52:09;0.57;;;0.50;;
68655;SDS011;55638;51.122;13.606;2023-03-23T00:53:43;0.32;;;0.30;;
68655;SDS011;55638;51.122;13.606;2023-03-23T00:55:16;0.35;;;0.30;;
68655;SDS011;55638;51.122;13.606;2023-03-23T00:56:48;1.10;;;0.40;;
68655;SDS011;55638;51.122;13.606;2023-03-23T00:58:19;1.35;;;0.40;;
68655;SDS011;55638;51.122;13.606;2023-03-23T00:59:52;0.40;;;0.40;;
68655;SDS011;55638;51.122;13.606;2023-03-23T01:01:35;0.63;;;0.30;;
68655;SDS011;55638;51.122;13.606;2023-03-23T01:03:08;1.10;;;0.35;;
68655;SDS011;55638;51.122;13.606;2023-03-23T01:04:43;0.40;;;0.40;;
68655;SDS011;55638;51.122;13.606;2023-03-23T01:06:16;0.50;;;0.40;;
68655;SDS011;55638;51.122;13.606;2023-03-23T01:07:48;0.47;;;0.30;;
68655;SDS011;55638;51.122;13.606;2023-03-23T01:09:20;1.10;;;0.30;;
68655;SDS011;55638;51.122;13.606;2023-03-23T01:11:01;0.50;;;0.40;;
68655;SDS011;55638;51.122;13.606;2023-03-23T01:12:35;0.50;;;0.40;;
68655;SDS011;55638;51.122;13.606;2023-03-23T01:14:08;0.38;;;0.30;;
68655;SDS011;55638;51.122;13.606;2023-03-23T01:15:41;0.98;;;0.30;;
68655;SDS011;55638;51.122;13.606;2023-03-23T01:17:13;0.50;;;0.38;;
68655;SDS011;55638;51.122;13.606;2023-03-23T01:18:46;0.70;;;0.40;;
68655;SDS011;55638;51.122;13.606;2023-03-23T01:20:18;0.68;;;0.50;;
68655;SDS011;55638;51.122;13.606;2023-03-23T01:21:50;1.20;;;0.30;;
68655;SDS011;55638;51.122;13.606;2023-03-23T01:23:22;0.65;;;0.50;;
68655;SDS011;55638;51.122;13.606;2023-03-23T01:24:54;0.20;;;0.20;;
68655;SDS011;55638;51.122;13.606;2023-03-23T01:26:26;1.08;;;0.50;;
68655;SDS011;55638;51.122;13.606;2023-03-23T01:27:59;2.33;;;0.40;;
68655;SDS011;55638;51.122;13.606;2023-03-23T01:29:33;0.82;;;0.38;;
68655;SDS011;55638;51.122;13.606;2023-03-23T01:31:09;0.60;;;0.32;;
68655;SDS011;55638;51.122;13.606;2023-03-23T01:32:45;0.35;;;0.28;;
68655;SDS011;55638;51.122;13.606;2023-03-23T01:34:17;0.82;;;0.40;;
68655;SDS011;55638;51.122;13.606;2023-03-23T01:35:49;0.88;;;0.45;;
68655;SDS011;55638;51.122;13.606;2023-03-23T01:37:21;0.85;;;0.30;;
68655;SDS011;55638;51.122;13.606;2023-03-23T01:38:59;0.43;;;0.40;;
68655;SDS011;55638;51.122;13.606;2023-03-23T01:40:35;1.55;;;0.40;;
68655;SDS011;55638;51.122;13.606;2023-03-23T01:42:08;0.70;;;0.30;;
68655;SDS011;55638;51.122;13.606;2023-03-23T01:43:57;0.88;;;0.60;;
68655;SDS011;55638;51.122;13.606;2023-03-23T01:45:48;0.30;;;0.28;;
68655;SDS011;55638;51.122;13.606;2023-03-23T01:47:20;1.13;;;0.30;;
68655;SDS011;55638;51.122;13.606;2023-03-23T01:48:56;0.55;;;0.30;;
68655;SDS011;55638;51.122;13.606;2023-03-23T01:51:18;1.90;;;0.40;;
68655;SDS011;55638;51.122;13.606;2023-03-23T01:52:27;1.15;;;0.25;;
68655;SDS011;55638;51.122;13.606;2023-03-23T01:54:06;0.40;;;0.30;;
68655;SDS011;55638;51.122;13.606;2023-03-23T01:55:42;2.38;;;0.30;;
68655;SDS011;55638;51.122;13.606;2023-03-23T01:57:20;1.45;;;0.30;;
68655;SDS011;55638;51.122;13.606;2023-03-23T01:58:55;0.75;;;0.30;;
68655;SDS011;55638;51.122;13.606;2023-03-23T02:00:29;0.80;;;0.35;;
68655;SDS011;55638;51.122;13.606;2023-03-23T02:02:01;0.95;;;0.30;;
68655;SDS011;55638;51.122;13.606;2023-03-23T02:03:34;0.45;;;0.30;;
68655;SDS011;55638;51.122;13.606;2023-03-23T02:05:09;0.73;;;0.30;;
68655;SDS011;55638;51.122;13.606;2023-03-23T02:06:46;0.50;;;0.30;;
68655;SDS011;55638;51.122;13.606;2023-03-23T02:08:24;0.65;;;0.40;;
68655;SDS011;55638;51.122;13.606;2023-03-23T02:09:59;0.40;;;0.30;;
68655;SDS011;55638;51.122;13.606;2023-03-23T02:11:35;0.40;;;0.30;;
68655;SDS011;55638;51.122;13.606;2023-03-23T02:13:08;0.77;;;0.30;;
68655;SDS011;55638;51.122;13.606;2023-03-23T02:14:43;0.40;;;0.30;;
68655;SDS011;55638;51.122;13.606;2023-03-23T02:21:39;0.70;;;0.50;;
68655;SDS011;55638;51.122;13.606;2023-03-23T02:23:34;0.20;;;0.20;;
68655;SDS011;55638;51.122;13.606;2023-03-23T02:27:31;0.35;;;0.30;;
68655;SDS011;55638;51.122;13.606;2023-03-23T02:31:07;0.63;;;0.30;;
68655;SDS011;55638;51.122;13.606;2023-03-23T02:36:29;0.20;;;0.20;;
68655;SDS011;55638;51.122;13.606;2023-03-23T02:38:13;0.65;;;0.30;;
68655;SDS011;55638;51.122;13.606;2023-03-23T02:41:24;0.38;;;0.22;;
68655;SDS011;55638;51.122;13.606;2023-03-23T02:43:02;0.57;;;0.30;;
68655;SDS011;55638;51.122;13.606;2023-03-23T02:44:38;0.45;;;0.32;;
68655;SDS011;55638;51.122;13.606;2023-03-23T02:46:14;0.40;;;0.20;;
68655;SDS011;55638;51.122;13.606;2023-03-23T02:47:48;0.88;;;0.40;;
68655;SDS011;55638;51.122;13.606;2023-03-23T02:49:24;0.32;;;0.30;;
68655;SDS011;55638;51.122;13.606;2023-03-23T02:50:59;0.75;;;0.30;;
68655;SDS011;55638;51.122;13.606;2023-03-23T02:52:33;0.75;;;0.30;;
68655;SDS011;55638;51.122;13.606;2023-03-23T02:54:08;0.75;;;0.35;;
68655;SDS011;55638;51.122;13.606;2023-03-23T02:55:42;0.60;;;0.30;;
68655;SDS011;55638;51.122;13.606;2023-03-23T02:57:20;0.32;;;0.30;;
68655;SDS011;55638;51.122;13.606;2023-03-23T02:59:10;0.40;;;0.30;;
68655;SDS011;55638;51.122;13.606;2023-03-23T03:00:43;0.35;;;0.30;;
68655;SDS011;55638;51.122;13.606;2023-03-23T03:02:17;0.70;;;0.30;;
68655;SDS011;55638;51.122;13.606;2023-03-23T03:03:52;0.47;;;0.30;;
68655;SDS011;55638;51.122;13.606;2023-03-23T03:09:13;0.45;;;0.30;;
68655;SDS011;55638;51.122;13.606;2023-03-23T03:10:59;0.75;;;0.30;;
68655;SDS011;55638;51.122;13.606;2023-03-23T03:14:31;0.50;;;0.40;;
68655;SDS011;55638;51.122;13.606;2023-03-23T03:18:09;0.60;;;0.40;;
68655;SDS011;55638;51.122;13.606;2023-03-23T03:19:52;0.50;;;0.30;;
68655;SDS011;55638;51.122;13.606;2023-03-23T03:21:31;0.73;;;0.30;;
68655;SDS011;55638;51.122;13.606;2023-03-23T03:23:08;0.40;;;0.40;;
68655;SDS011;55638;51.122;13.606;2023-03-23T03:24:46;1.02;;;0.30;;
68655;SDS011;55638;51.122;13.606;2023-03-23T03:26:20;0.20;;;0.20;;
68655;SDS011;55638;51.122;13.606;2023-03-23T03:28:03;0.75;;;0.30;;
68655;SDS011;55638;51.122;13.606;2023-03-23T03:31:21;0.77;;;0.50;;
68655;SDS011;55638;51.122;13.606;2023-03-23T03:32:56;0.88;;;0.40;;
68655;SDS011;55638;51.122;13.606;2023-03-23T03:34:32;0.30;;;0.30;;
68655;SDS011;55638;51.122;13.606;2023-03-23T03:36:07;0.88;;;0.43;;
68655;SDS011;55638;51.122;13.606;2023-03-23T03:37:47;0.80;;;0.40;;
68655;SDS011;55638;51.122;13.606;2023-03-23T03:39:19;0.70;;;0.43;;
68655;SDS011;55638;51.122;13.606;2023-03-23T03:40:53;1.05;;;0.30;;
68655;SDS011;55638;51.122;13.606;2023-03-23T03:42:27;0.80;;;0.45;;
68655;SDS011;55638;51.122;13.606;2023-03-23T03:43:59;0.43;;;0.35;;
68655;SDS011;55638;51.122;13.606;2023-03-23T03:45:31;0.60;;;0.40;;
68655;SDS011;55638;51.122;13.606;2023-03-23T03:47:04;1.42;;;0.50;;
68655;SDS011;55638;51.122;13.606;2023-03-23T03:48:36;0.80;;;0.45;;
68655;SDS011;55638;51.122;13.606;2023-03-23T03:50:08;0.90;;;0.40;;
68655;SDS011;55638;51.122;13.606;2023-03-23T03:51:41;0.70;;;0.40;;
68655;SDS011;55638;51.122;13.606;2023-03-23T03:53:21;0.82;;;0.40;;
68655;SDS011;55638;51.122;13.606;2023-03-23T03:54:59;2.38;;;0.30;;
68655;SDS011;55638;51.122;13.606;2023-03-23T03:56:33;0.73;;;0.35;;
68655;SDS011;55638;51.122;13.606;2023-03-23T03:58:30;0.98;;;0.40;;
68655;SDS011;55638;51.122;13.606;2023-03-23T04:00:26;1.42;;;0.50;;
68655;SDS011;55638;51.122;13.606;2023-03-23T04:01:58;0.68;;;0.50;;
68655;SDS011;55638;51.122;13.606;2023-03-23T04:03:30;1.45;;;0.70;;
68655;SDS011;55638;51.122;13.606;2023-03-23T04:05:14;0.88;;;0.60;;
68655;SDS011;55638;51.122;13.606;2023-03-23T04:06:48;1.05;;;0.45;;
68655;SDS011;55638;51.122;13.606;2023-03-23T04:08:23;0.57;;;0.40;;
68655;SDS011;55638;51.122;13.606;2023-03-23T04:09:55;0.98;;;0.50;;
68655;SDS011;55638;51.122;13.606;2023-03-23T04:11:27;2.80;;;0.50;;
68655;SDS011;55638;51.122;13.606;2023-03-23T04:13:23;0.80;;;0.40;;
68655;SDS011;55638;51.122;13.606;2023-03-23T04:15:19;0.75;;;0.40;;
68655;SDS011;55638;51.122;13.606;2023-03-23T04:16:52;0.38;;;0.30;;
68655;SDS011;55638;51.122;13.606;2023-03-23T04:18:28;0.80;;;0.30;;
68655;SDS011;55638;51.122;13.606;2023-03-23T04:20:01;1.98;;;0.60;;
68655;SDS011;55638;51.122;13.606;2023-03-23T04:21:39;0.40;;;0.30;;
68655;SDS011;55638;51.122;13.606;2023-03-23T04:23:13;1.50;;;0.50;;
68655;SDS011;55638;51.122;13.606;2023-03-23T04:24:47;0.60;;;0.50;;
68655;SDS011;55638;51.122;13.606;2023-03-23T04:26:28;0.52;;;0.40;;
68655;SDS011;55638;51.122;13.606;2023-03-23T04:28:06;1.15;;;0.50;;
68655;SDS011;55638;51.122;13.606;2023-03-23T04:29:44;0.60;;;0.50;;
68655;SDS011;55638;51.122;13.606;2023-03-23T04:31:44;0.60;;;0.30;;
68655;SDS011;55638;51.122;13.606;2023-03-23T04:33:28;0.60;;;0.30;;
68655;SDS011;55638;51.122;13.606;2023-03-23T04:35:22;1.20;;;0.40;;
68655;SDS011;55638;51.122;13.606;2023-03-23T04:37:10;1.05;;;0.50;;
68655;SDS011;55638;51.122;13.606;2023-03-23T04:38:45;0.57;;;0.43;;
68655;SDS011;55638;51.122;13.606;2023-03-23T04:40:24;1.55;;;0.38;;
68655;SDS011;55638;51.122;13.606;2023-03-23T04:42:08;0.47;;;0.30;;
68655;SDS011;55638;51.122;13.606;2023-03-23T04:44:08;1.17;;;0.50;;
68655;SDS011;55638;51.122;13.606;2023-03-23T04:45:52;0.55;;;0.45;;
68655;SDS011;55638;51.122;13.606;2023-03-23T04:47:30;0.95;;;0.40;;
68655;SDS011;55638;51.122;13.606;2023-03-23T04:49:06;0.65;;;0.50;;
68655;SDS011;55638;51.122;13.606;2023-03-23T04:50:41;0.40;;;0.32;;
68655;SDS011;55638;51.122;13.606;2023-03-23T04:52:21;0.70;;;0.43;;
68655;SDS011;55638;51.122;13.606;2023-03-23T04:53:57;1.08;;;0.40;;
68655;SDS011;55638;51.122;13.606;2023-03-23T04:55:33;1.00;;;0.50;;
68655;SDS011;55638;51.122;13.606;2023-03-23T04:57:12;1.33;;;0.40;;
68655;SDS011;55638;51.122;13.606;2023-03-23T04:58:48;1.20;;;0.43;;
68655;SDS011;55638;51.122;13.606;2023-03-23T05:00:36;0.70;;;0.40;;
68655;SDS011;55638;51.122;13.606;2023-03-23T05:02:12;0.77;;;0.50;;
68655;SDS011;55638;51.122;13.606;2023-03-23T05:03:48;0.80;;;0.50;;
68655;SDS011;55638;51.122;13.606;2023-03-23T05:05:21;1.50;;;0.52;;
68655;SDS011;55638;51.122;13.606;2023-03-23T05:06:56;0.65;;;0.40;;
68655;SDS011;55638;51.122;13.606;2023-03-23T05:08:32;0.60;;;0.50;;
68655;SDS011;55638;51.122;13.606;2023-03-23T05:10:04;0.98;;;0.30;;
68655;SDS011;55638;51.122;13.606;2023-03-23T05:11:38;0.70;;;0.47;;
68655;SDS011;55638;51.122;13.606;2023-03-23T05:13:10;0.68;;;0.40;;
68655;SDS011;55638;51.122;13.606;2023-03-23T05:14:42;1.00;;;0.50;;
68655;SDS011;55638;51.122;13.606;2023-03-23T05:16:18;1.10;;;0.35;;
68655;SDS011;55638;51.122;13.606;2023-03-23T05:17:52;1.35;;;0.52;;
68655;SDS011;55638;51.122;13.606;2023-03-23T05:19:25;1.40;;;0.60;;
68655;SDS011;55638;51.122;13.606;2023-03-23T05:21:01;1.33;;;0.50;;
68655;SDS011;55638;51.122;13.606;2023-03-23T05:22:39;0.70;;;0.50;;
68655;SDS011;55638;51.122;13.606;2023-03-23T05:24:11;0.93;;;0.50;;
68655;SDS011;55638;51.122;13.606;2023-03-23T05:25:45;1.17;;;0.70;;
68655;SDS011;55638;51.122;13.606;2023-03-23T05:27:21;0.80;;;0.60;;
68655;SDS011;55638;51.122;13.606;2023-03-23T05:28:54;0.93;;;0.60;;
68655;SDS011;55638;51.122;13.606;2023-03-23T05:30:44;0.65;;;0.45;;
68655;SDS011;55638;51.122;13.606;2023-03-23T05:32:17;0.60;;;0.50;;
68655;SDS011;55638;51.122;13.606;2023-03-23T05:33:51;0.50;;;0.50;;
68655;SDS011;55638;51.122;13.606;2023-03-23T05:35:32;0.85;;;0.60;;
68655;SDS011;55638;51.122;13.606;2023-03-23T05:37:04;0.95;;;0.70;;
68655;SDS011;55638;51.122;13.606;2023-03-23T05:38:51;0.52;;;0.45;;
68655;SDS011;55638;51.122;13.606;2023-03-23T05:40:23;1.05;;;0.50;;
68655;SDS011;55638;51.122;13.606;2023-03-23T05:42:02;1.35;;;0.50;;
68655;SDS011;55638;51.122;13.606;2023-03-23T05:43:47;1.50;;;0.60;;
68655;SDS011;55638;51.122;13.606;2023-03-23T05:45:42;1.77;;;0.60;;
68655;SDS011;55638;51.122;13.606;2023-03-23T05:47:14;0.80;;;0.63;;
68655;SDS011;55638;51.122;13.606;2023-03-23T05:48:51;1.25;;;0.57;;
68655;SDS011;55638;51.122;13.606;2023-03-23T05:50:26;2.45;;;1.60;;
68655;SDS011;55638;51.122;13.606;2023-03-23T05:51:59;2.45;;;1.80;;
68655;SDS011;55638;51.122;13.606;2023-03-23T05:53:31;3.00;;;2.10;;
68655;SDS011;55638;51.122;13.606;2023-03-23T05:55:03;3.08;;;1.75;;
68655;SDS011;55638;51.122;13.606;2023-03-23T05:56:37;1.08;;;0.93;;
68655;SDS011;55638;51.122;13.606;2023-03-23T05:58:23;2.22;;;1.00;;
68655;SDS011;55638;51.122;13.606;2023-03-23T05:59:58;1.83;;;0.85;;
68655;SDS011;55638;51.122;13.606;2023-03-23T06:01:31;1.70;;;0.88;;
68655;SDS011;55638;51.122;13.606;2023-03-23T06:03:03;1.15;;;0.68;;
68655;SDS011;55638;51.122;13.606;2023-03-23T06:04:43;1.45;;;0.60;;
68655;SDS011;55638;51.122;13.606;2023-03-23T06:06:22;1.00;;;0.57;;
68655;SDS011;55638;51.122;13.606;2023-03-23T06:08:00;1.20;;;0.80;;
68655;SDS011;55638;51.122;13.606;2023-03-23T06:09:32;1.48;;;0.75;;
68655;SDS011;55638;51.122;13.606;2023-03-23T06:11:19;1.38;;;0.73;;
68655;SDS011;55638;51.122;13.606;2023-03-23T06:13:09;1.85;;;0.65;;
68655;SDS011;55638;51.122;13.606;2023-03-23T06:14:49;0.80;;;0.60;;
68655;SDS011;55638;51.122;13.606;2023-03-23T06:16:26;1.10;;;0.50;;
68655;SDS011;55638;51.122;13.606;2023-03-23T06:18:01;0.65;;;0.40;;
68655;SDS011;55638;51.122;13.606;2023-03-23T06:20:05;0.70;;;0.50;;
68655;SDS011;55638;51.122;13.606;2023-03-23T06:21:43;0.82;;;0.50;;
68655;SDS011;55638;51.122;13.606;2023-03-23T06:23:24;1.20;;;0.50;;
68655;SDS011;55638;51.122;13.606;2023-03-23T06:24:56;0.75;;;0.50;;
68655;SDS011;55638;51.122;13.606;2023-03-23T06:26:37;2.08;;;0.57;;
68655;SDS011;55638;51.122;13.606;2023-03-23T06:28:13;1.17;;;0.40;;
68655;SDS011;55638;51.122;13.606;2023-03-23T06:29:51;0.68;;;0.40;;
68655;SDS011;55638;51.122;13.606;2023-03-23T06:31:24;0.98;;;0.40;;
68655;SDS011;55638;51.122;13.606;2023-03-23T06:32:58;1.63;;;0.60;;
68655;SDS011;55638;51.122;13.606;2023-03-23T06:34:50;1.00;;;0.40;;
68655;SDS011;55638;51.122;13.606;2023-03-23T06:36:40;0.73;;;0.52;;
68655;SDS011;55638;51.122;13.606;2023-03-23T06:38:28;1.05;;;0.50;;
68655;SDS011;55638;51.122;13.606;2023-03-23T06:40:00;0.55;;;0.40;;
68655;SDS011;55638;51.122;13.606;2023-03-23T06:41:36;0.40;;;0.40;;
68655;SDS011;55638;51.122;13.606;2023-03-23T06:43:08;0.77;;;0.50;;
68655;SDS011;55638;51.122;13.606;2023-03-23T06:44:59;1.45;;;0.73;;
68655;SDS011;55638;51.122;13.606;2023-03-23T06:46:32;0.90;;;0.40;;
68655;SDS011;55638;51.122;13.606;2023-03-23T06:48:22;0.60;;;0.30;;
68655;SDS011;55638;51.122;13.606;2023-03-23T06:49:55;0.80;;;0.40;;
68655;SDS011;55638;51.122;13.606;2023-03-23T06:51:29;0.98;;;0.60;;
68655;SDS011;55638;51.122;13.606;2023-03-23T06:53:01;0.57;;;0.40;;
68655;SDS011;55638;51.122;13.606;2023-03-23T06:54:34;1.23;;;0.60;;
68655;SDS011;55638;51.122;13.606;2023-03-23T06:56:07;0.80;;;0.55;;
68655;SDS011;55638;51.122;13.606;2023-03-23T06:57:40;1.45;;;0.63;;
68655;SDS011;55638;51.122;13.606;2023-03-23T06:59:14;0.68;;;0.38;;
68655;SDS011;55638;51.122;13.606;2023-03-23T07:00:47;0.40;;;0.40;;
68655;SDS011;55638;51.122;13.606;2023-03-23T07:02:20;0.65;;;0.50;;
68655;SDS011;55638;51.122;13.606;2023-03-23T07:03:55;0.60;;;0.50;;
68655;SDS011;55638;51.122;13.606;2023-03-23T07:05:38;0.50;;;0.50;;
68655;SDS011;55638;51.122;13.606;2023-03-23T07:07:13;0.63;;;0.50;;
68655;SDS011;55638;51.122;13.606;2023-03-23T07:08:52;0.73;;;0.40;;
68655;SDS011;55638;51.122;13.606;2023-03-23T07:10:27;0.63;;;0.40;;
68655;SDS011;55638;51.122;13.606;2023-03-23T07:12:00;1.20;;;0.65;;
68655;SDS011;55638;51.122;13.606;2023-03-23T07:13:37;1.73;;;0.65;;
68655;SDS011;55638;51.122;13.606;2023-03-23T07:15:09;1.17;;;0.50;;
68655;SDS011;55638;51.122;13.606;2023-03-23T07:16:44;2.28;;;1.08;;
68655;SDS011;55638;51.122;13.606;2023-03-23T07:18:16;0.70;;;0.70;;
68655;SDS011;55638;51.122;13.606;2023-03-23T07:19:51;1.55;;;0.70;;
68655;SDS011;55638;51.122;13.606;2023-03-23T07:21:23;0.75;;;0.50;;
68655;SDS011;55638;51.122;13.606;2023-03-23T07:22:55;0.70;;;0.40;;
68655;SDS011;55638;51.122;13.606;2023-03-23T07:24:42;1.08;;;0.52;;
68655;SDS011;55638;51.122;13.606;2023-03-23T07:26:29;1.08;;;0.57;;
68655;SDS011;55638;51.122;13.606;2023-03-23T07:28:04;1.42;;;0.77;;
68655;SDS011;55638;51.122;13.606;2023-03-23T07:29:36;1.65;;;0.50;;
68655;SDS011;55638;51.122;13.606;2023-03-23T07:31:17;0.50;;;0.47;;
68655;SDS011;55638;51.122;13.606;2023-03-23T07:32:50;0.60;;;0.47;;
68655;SDS011;55638;51.122;13.606;2023-03-23T07:34:23;0.77;;;0.50;;
68655;SDS011;55638;51.122;13.606;2023-03-23T07:36:06;2.05;;;0.70;;
68655;SDS011;55638;51.122;13.606;2023-03-23T07:37:40;0.70;;;0.50;;
68655;SDS011;55638;51.122;13.606;2023-03-23T07:39:13;0.95;;;0.60;;
68655;SDS011;55638;51.122;13.606;2023-03-23T07:40:46;0.90;;;0.60;;
68655;SDS011;55638;51.122;13.606;2023-03-23T07:42:20;0.77;;;0.70;;
68655;SDS011;55638;51.122;13.606;2023-03-23T07:43:59;0.52;;;0.40;;
68655;SDS011;55638;51.122;13.606;2023-03-23T07:45:38;1.67;;;0.65;;
68655;SDS011;55638;51.122;13.606;2023-03-23T07:47:10;1.05;;;0.60;;
68655;SDS011;55638;51.122;13.606;2023-03-23T07:48:42;1.40;;;0.60;;
68655;SDS011;55638;51.122;13.606;2023-03-23T07:50:14;0.98;;;0.60;;
68655;SDS011;55638;51.122;13.606;2023-03-23T07:51:47;1.30;;;0.60;;
68655;SDS011;55638;51.122;13.606;2023-03-23T07:53:19;1.02;;;0.50;;
68655;SDS011;55638;51.122;13.606;2023-03-23T07:55:04;1.52;;;0.75;;
68655;SDS011;55638;51.122;13.606;2023-03-23T07:57:04;1.13;;;0.70;;
68655;SDS011;55638;51.122;13.606;2023-03-23T07:58:40;1.83;;;0.55;;
68655;SDS011;55638;51.122;13.606;2023-03-23T08:00:13;1.48;;;0.70;;
68655;SDS011;55638;51.122;13.606;2023-03-23T08:01:51;1.08;;;0.80;;
68655;SDS011;55638;51.122;13.606;2023-03-23T08:03:52;2.03;;;0.63;;
68655;SDS011;55638;51.122;13.606;2023-03-23T08:05:45;1.02;;;0.65;;
68655;SDS011;55638;51.122;13.606;2023-03-23T08:07:17;0.70;;;0.50;;
68655;SDS011;55638;51.122;13.606;2023-03-23T08:09:13;1.30;;;0.68;;
68655;SDS011;55638;51.122;13.606;2023-03-23T08:11:11;1.35;;;0.52;;
68655;SDS011;55638;51.122;13.606;2023-03-23T08:12:52;0.60;;;0.52;;
68655;SDS011;55638;51.122;13.606;2023-03-23T08:14:44;1.33;;;0.70;;
68655;SDS011;55638;51.122;13.606;2023-03-23T08:16:39;1.20;;;0.60;;
68655;SDS011;55638;51.122;13.606;2023-03-23T08:18:37;1.88;;;0.70;;
68655;SDS011;55638;51.122;13.606;2023-03-23T08:20:31;0.88;;;0.50;;
68655;SDS011;55638;51.122;13.606;2023-03-23T08:22:04;0.68;;;0.55;;
68655;SDS011;55638;51.122;13.606;2023-03-23T08:23:48;1.83;;;0.85;;
68655;SDS011;55638;51.122;13.606;2023-03-23T08:25:31;1.50;;;0.52;;
68655;SDS011;55638;51.122;13.606;2023-03-23T08:27:15;0.70;;;0.45;;
68655;SDS011;55638;51.122;13.606;2023-03-23T08:28:47;1.85;;;0.80;;
68655;SDS011;55638;51.122;13.606;2023-03-23T08:30:47;1.07;;;0.73;;
68655;SDS011;55638;51.122;13.606;2023-03-23T08:32:51;0.88;;;0.70;;
68655;SDS011;55638;51.122;13.606;2023-03-23T08:36:31;0.50;;;0.30;;
68655;SDS011;55638;51.122;13.606;2023-03-23T08:38:22;0.70;;;0.45;;
68655;SDS011;55638;51.122;13.606;2023-03-23T08:40:13;1.33;;;0.70;;
68655;SDS011;55638;51.122;13.606;2023-03-23T08:42:07;0.63;;;0.47;;
68655;SDS011;55638;51.122;13.606;2023-03-23T08:43:53;2.42;;;0.55;;
68655;SDS011;55638;51.122;13.606;2023-03-23T08:45:55;1.27;;;0.75;;
68655;SDS011;55638;51.122;13.606;2023-03-23T08:47:46;1.25;;;0.60;;
68655;SDS011;55638;51.122;13.606;2023-03-23T08:49:43;0.80;;;0.60;;
68655;SDS011;55638;51.122;13.606;2023-03-23T08:51:35;0.85;;;0.77;;
68655;SDS011;55638;51.122;13.606;2023-03-23T08:53:13;1.23;;;0.70;;
68655;SDS011;55638;51.122;13.606;2023-03-23T08:54:51;1.70;;;0.70;;
68655;SDS011;55638;51.122;13.606;2023-03-23T08:56:38;0.68;;;0.52;;
68655;SDS011;55638;51.122;13.606;2023-03-23T08:58:19;1.10;;;0.77;;
68655;SDS011;55638;51.122;13.606;2023-03-23T09:00:07;1.85;;;0.90;;
68655;SDS011;55638;51.122;13.606;2023-03-23T09:02:10;0.90;;;0.70;;
68655;SDS011;55638;51.122;13.606;2023-03-23T09:03:50;1.00;;;0.77;;
68655;SDS011;55638;51.122;13.606;2023-03-23T09:05:33;0.80;;;0.63;;
68655;SDS011;55638;51.122;13.606;2023-03-23T09:07:20;0.80;;;0.55;;
68655;SDS011;55638;51.122;13.606;2023-03-23T09:08:52;1.30;;;0.70;;
68655;SDS011;55638;51.122;13.606;2023-03-23T09:10:27;1.23;;;0.70;;
68655;SDS011;55638;51.122;13.606;2023-03-23T09:12:01;0.90;;;0.80;;
68655;SDS011;55638;51.122;13.606;2023-03-23T09:13:33;0.98;;;0.70;;
68655;SDS011;55638;51.122;13.606;2023-03-23T09:15:08;1.67;;;0.80;;
68655;SDS011;55638;51.122;13.606;2023-03-23T09:16:43;1.25;;;0.70;;
68655;SDS011;55638;51.122;13.606;2023-03-23T09:18:16;1.50;;;0.70;;
68655;SDS011;55638;51.122;13.606;2023-03-23T09:19:48;0.85;;;0.60;;
68655;SDS011;55638;51.122;13.606;2023-03-23T09:21:26;3.92;;;1.05;;
68655;SDS011;55638;51.122;13.606;2023-03-23T09:22:59;1.27;;;0.80;;
68655;SDS011;55638;51.122;13.606;2023-03-23T09:24:31;1.10;;;0.73;;
68655;SDS011;55638;51.122;13.606;2023-03-23T09:26:03;1.65;;;0.70;;
68655;SDS011;55638;51.122;13.606;2023-03-23T09:27:36;1.75;;;0.70;;
68655;SDS011;55638;51.122;13.606;2023-03-23T09:29:08;1.58;;;1.00;;
68655;SDS011;55638;51.122;13.606;2023-03-23T09:30:40;1.00;;;0.70;;
68655;SDS011;55638;51.122;13.606;2023-03-23T09:32:23;1.88;;;0.77;;
68655;SDS011;55638;51.122;13.606;2023-03-23T09:33:55;1.40;;;0.77;;
68655;SDS011;55638;51.122;13.606;2023-03-23T09:35:28;1.80;;;0.85;;
68655;SDS011;55638;51.122;13.606;2023-03-23T09:37:03;1.35;;;0.90;;
68655;SDS011;55638;51.122;13.606;2023-03-23T09:38:35;0.93;;;0.82;;
68655;SDS011;55638;51.122;13.606;2023-03-23T09:40:12;1.17;;;0.75;;
68655;SDS011;55638;51.122;13.606;2023-03-23T09:46:20;1.10;;;0.70;;
68655;SDS011;55638;51.122;13.606;2023-03-23T09:48:02;1.40;;;0.63;;
68655;SDS011;55638;51.122;13.606;2023-03-23T09:49:46;1.23;;;0.80;;
68655;SDS011;55638;51.122;13.606;2023-03-23T09:51:37;1.13;;;0.60;;
68655;SDS011;55638;51.122;13.606;2023-03-23T09:53:19;1.30;;;1.00;;
68655;SDS011;55638;51.122;13.606;2023-03-23T09:54:56;1.38;;;0.93;;
68655;SDS011;55638;51.122;13.606;2023-03-23T09:56:29;1.00;;;0.80;;
68655;SDS011;55638;51.122;13.606;2023-03-23T09:58:09;1.00;;;0.70;;
68655;SDS011;55638;51.122;13.606;2023-03-23T09:59:56;0.98;;;0.65;;
68655;SDS011;55638;51.122;13.606;2023-03-23T10:01:48;0.85;;;0.73;;
68655;SDS011;55638;51.122;13.606;2023-03-23T10:03:27;0.93;;;0.75;;
68655;SDS011;55638;51.122;13.606;2023-03-23T10:07:10;1.00;;;0.70;;
68655;SDS011;55638;51.122;13.606;2023-03-23T10:08:49;0.98;;;0.70;;
68655;SDS011;55638;51.122;13.606;2023-03-23T10:10:41;1.20;;;0.90;;
68655;SDS011;55638;51.122;13.606;2023-03-23T10:16:17;0.70;;;0.60;;
68655;SDS011;55638;51.122;13.606;2023-03-23T10:18:01;0.80;;;0.80;;